20OK weather

Will and Wiley's Aerodrome
Claremore, Oklahoma, United States

Public forecast

Using degrees Fahrenheit for public forecast. Weather courtesy of forecast.io.

METAR (pilot weather report)

Closest report is Claremore Regional Airport, 8.3 nm (15.4 km) ESE. Retrieved 2019/03/21 03:35 UTC (0 seconds ago):

KGCM 210335Z AUTO 22003KT 10SM CLR 06/00 A3017 RMK AO2 TSNO

TAF (pilot weather forecast)

Forecast is more than 12 hours old.

Closest forecast is Tulsa International Airport, 14.0 nm (25.8 km) WSW. Retrieved 2019/03/20 00:30 UTC (1 day ago):

TAF KTUL 202328Z 2100/2124 32009KT P6SM SKC FM210200 22004KT P6SM SKC FM211400 36008KT P6SM SKC